createdAt,value
2022-09-20T00:00:48.896Z,7.73
2022-09-20T00:03:17.922Z,5.60
2022-09-20T00:05:46.149Z,3.30
2022-09-20T00:08:14.429Z,5.93
2022-09-20T00:10:42.894Z,2.57
2022-09-20T00:13:11.399Z,5.03
2022-09-20T00:15:41.554Z,3.30
2022-09-20T00:18:09.029Z,6.23
2022-09-20T00:20:38.022Z,1.50
2022-09-20T00:23:05.529Z,3.83
2022-09-20T00:25:33.411Z,6.23
2022-09-20T00:28:01.195Z,3.83
2022-09-20T00:30:29.254Z,5.53
2022-09-20T00:32:56.710Z,6.53
2022-09-20T00:35:23.109Z,1.83
2022-09-20T00:37:52.254Z,7.33
2022-09-20T00:40:20.834Z,2.67
2022-09-20T00:42:48.523Z,3.00
2022-09-20T00:45:20.164Z,2.87
2022-09-20T00:47:49.499Z,4.37
2022-09-20T00:50:24.226Z,2.63
2022-09-20T00:52:59.239Z,3.37
2022-09-20T00:55:26.961Z,2.10
2022-09-20T00:57:54.848Z,2.60
2022-09-20T01:00:22.327Z,3.23
2022-09-20T01:02:53.115Z,3.90
2022-09-20T01:05:20.572Z,3.23
2022-09-20T01:07:49.079Z,3.03
2022-09-20T01:10:18.234Z,8.83
2022-09-20T01:12:46.126Z,3.33
2022-09-20T01:15:14.371Z,3.87
2022-09-20T01:17:43.991Z,5.40
2022-09-20T01:20:16.792Z,3.90
2022-09-20T01:22:59.170Z,2.20
2022-09-20T01:25:36.382Z,5.37
2022-09-20T01:28:05.230Z,11.23
2022-09-20T01:30:34.795Z,1.50
2022-09-20T01:33:05.967Z,1.47
2022-09-20T01:35:35.374Z,6.10
2022-09-20T01:38:25.836Z,9.17
2022-09-20T01:40:57.699Z,2.07
2022-09-20T01:43:31.409Z,2.23
2022-09-20T01:46:00.751Z,2.67
2022-09-20T01:48:32.263Z,1.90
2022-09-20T01:51:11.316Z,2.23
2022-09-20T01:54:04.427Z,4.50
2022-09-20T01:56:49.438Z,4.40
2022-09-20T01:59:36.003Z,3.80
2022-09-20T02:02:09.171Z,2.20
2022-09-20T02:04:51.463Z,3.43
2022-09-20T02:07:30.877Z,1.70
2022-09-20T02:10:20.696Z,5.30
2022-09-20T02:12:54.004Z,3.03
2022-09-20T02:15:53.913Z,1.77
2022-09-20T02:18:26.875Z,8.47
2022-09-20T02:20:57.758Z,1.70
2022-09-20T02:23:36.118Z,3.33
2022-09-20T02:26:12.684Z,2.80
2022-09-20T02:28:52.765Z,1.70
2022-09-20T02:31:28.541Z,4.60
2022-09-20T02:34:04.667Z,2.40
2022-09-20T02:36:37.282Z,4.63
2022-09-20T02:39:08.826Z,4.07
2022-09-20T02:41:47.949Z,3.90
2022-09-20T02:44:19.424Z,3.00
2022-09-20T02:46:53.534Z,2.13
2022-09-20T02:49:24.846Z,4.33
2022-09-20T02:51:53.635Z,1.63
2022-09-20T02:54:26.854Z,4.40
2022-09-20T02:56:59.550Z,2.60
2022-09-20T02:59:30.800Z,5.80
2022-09-20T03:02:05.794Z,2.47
2022-09-20T03:04:38.833Z,5.80
2022-09-20T03:07:12.094Z,4.83
2022-09-20T03:09:42.882Z,10.23
2022-09-20T03:12:14.941Z,4.70
2022-09-20T03:14:46.202Z,4.27
2022-09-20T03:17:19.430Z,4.57
2022-09-20T03:19:57.255Z,2.23
2022-09-20T03:22:30.015Z,7.40
2022-09-20T03:25:03.074Z,3.37
2022-09-20T03:27:33.191Z,5.00
2022-09-20T03:30:06.283Z,7.53
2022-09-20T03:32:43.875Z,5.70
2022-09-20T03:35:20.594Z,4.27
2022-09-20T03:37:58.600Z,2.50
2022-09-20T03:40:32.351Z,8.43
2022-09-20T03:43:02.804Z,16.27
2022-09-20T03:45:41.968Z,9.70
2022-09-20T03:48:30.545Z,13.90
2022-09-20T03:51:18.615Z,7.90
2022-09-20T03:53:55.772Z,5.87
2022-09-20T03:56:30.226Z,14.97
2022-09-20T03:59:04.595Z,9.00
2022-09-20T04:01:38.392Z,16.60
2022-09-20T04:04:10.096Z,12.43
2022-09-20T04:06:59.343Z,10.10
2022-09-20T04:09:30.166Z,13.10
2022-09-20T04:12:00.905Z,15.00
2022-09-20T04:14:38.238Z,12.67
2022-09-20T04:17:12.440Z,16.57
2022-09-20T04:19:45.113Z,31.20
2022-09-20T04:22:14.770Z,23.00
2022-09-20T04:24:44.190Z,15.93
2022-09-20T04:27:15.004Z,29.90
2022-09-20T04:29:45.931Z,48.50
2022-09-20T04:32:16.755Z,39.10
2022-09-20T04:35:05.021Z,25.10
2022-09-20T04:37:36.012Z,34.17
2022-09-20T04:40:11.098Z,23.97
2022-09-20T04:42:57.199Z,29.60
2022-09-20T04:45:58.272Z,27.00
2022-09-20T04:48:40.657Z,41.90
2022-09-20T04:51:22.973Z,29.77
2022-09-20T04:54:20.390Z,21.00
2022-09-20T04:56:58.517Z,8.47
2022-09-20T04:59:34.384Z,5.30
2022-09-20T05:02:22.744Z,9.13
2022-09-20T05:05:17.271Z,16.07
2022-09-20T05:08:01.324Z,26.20
2022-09-20T05:10:38.220Z,93.23
2022-09-20T05:13:16.663Z,89.73
2022-09-20T05:15:49.744Z,21.63
2022-09-20T05:18:35.967Z,53.63
2022-09-20T05:21:09.374Z,27.47
2022-09-20T05:23:44.070Z,56.33
2022-09-20T05:26:13.580Z,51.27
2022-09-20T05:28:50.546Z,23.53
2022-09-20T05:31:22.643Z,28.93
2022-09-20T05:33:52.715Z,25.13
2022-09-20T05:36:24.751Z,22.23
2022-09-20T05:38:55.357Z,19.40
2022-09-20T05:41:31.845Z,12.47
2022-09-20T05:44:07.314Z,9.93
2022-09-20T05:46:39.664Z,6.30
2022-09-20T05:49:12.160Z,7.20
2022-09-20T05:51:48.673Z,3.30
2022-09-20T05:54:42.320Z,4.10
2022-09-20T05:57:16.662Z,5.40
2022-09-20T05:59:54.598Z,4.20
2022-09-20T06:02:26.067Z,5.33
2022-09-20T06:04:58.975Z,6.67
2022-09-20T06:07:30.048Z,5.80
2022-09-20T06:10:16.948Z,2.60
2022-09-20T06:12:52.422Z,3.60
2022-09-20T06:15:25.374Z,3.03
2022-09-20T06:17:57.195Z,3.90
2022-09-20T06:20:26.865Z,6.93
2022-09-20T06:22:55.717Z,5.97
2022-09-20T06:25:25.364Z,10.30
2022-09-20T06:27:53.517Z,11.50
2022-09-20T06:30:24.392Z,6.27
2022-09-20T06:32:56.074Z,6.47
2022-09-20T06:35:25.071Z,5.23
2022-09-20T06:38:13.099Z,7.17
2022-09-20T06:41:14.999Z,4.63
2022-09-20T06:43:42.964Z,6.00
2022-09-20T06:46:13.005Z,5.13
2022-09-20T06:48:40.548Z,6.27
2022-09-20T06:51:09.227Z,9.40
2022-09-20T06:53:40.198Z,7.20
2022-09-20T06:56:09.172Z,7.63
2022-09-20T06:58:36.559Z,8.27
2022-09-20T07:01:04.061Z,10.50
2022-09-20T07:03:32.862Z,13.03
2022-09-20T07:06:01.126Z,8.20
2022-09-20T07:08:28.502Z,6.00
2022-09-20T07:10:56.207Z,8.63
2022-09-20T07:13:24.023Z,8.20
2022-09-20T07:15:51.678Z,11.40
2022-09-20T07:18:19.061Z,10.23
2022-09-20T07:20:47.898Z,9.37
2022-09-20T07:23:15.912Z,7.63
2022-09-20T07:25:43.291Z,9.77
2022-09-20T07:28:10.672Z,10.47
2022-09-20T07:30:39.116Z,9.40
2022-09-20T07:33:07.618Z,9.50
2022-09-20T07:35:36.242Z,12.30
2022-09-20T07:38:04.949Z,9.90
2022-09-20T07:40:32.360Z,10.27
2022-09-20T07:42:59.764Z,7.80
2022-09-20T07:45:27.207Z,13.83
2022-09-20T07:47:54.732Z,10.30
2022-09-20T07:50:22.517Z,11.10
2022-09-20T07:52:49.959Z,10.80
2022-09-20T07:55:19.345Z,10.70
2022-09-20T07:57:46.796Z,10.07
2022-09-20T08:00:14.591Z,8.30
2022-09-20T08:02:42.043Z,16.50
2022-09-20T08:05:09.679Z,12.50
2022-09-20T08:07:37.059Z,8.90
2022-09-20T08:10:04.639Z,17.20
2022-09-20T08:15:21.760Z,14.13
2022-09-20T08:17:49.335Z,14.70
2022-09-20T08:20:16.861Z,18.80
2022-09-20T08:22:52.761Z,10.00
2022-09-20T08:25:28.548Z,10.43
2022-09-20T08:27:57.275Z,10.43
2022-09-20T08:30:27.610Z,7.00
2022-09-20T08:32:55.723Z,12.47
2022-09-20T08:35:25.351Z,18.87
2022-09-20T08:37:55.888Z,17.23
2022-09-20T08:40:25.049Z,10.23
2022-09-20T08:42:54.397Z,6.60
2022-09-20T08:45:40.374Z,10.90
2022-09-20T08:48:10.858Z,10.40
2022-09-20T08:50:38.471Z,8.77
2022-09-20T08:53:06.988Z,7.77
2022-09-20T08:55:37.395Z,7.80
2022-09-20T08:58:08.486Z,6.80
2022-09-20T09:00:38.321Z,7.13
2022-09-20T09:03:06.736Z,8.63
2022-09-20T09:05:35.320Z,8.60
2022-09-20T09:08:05.188Z,5.90
2022-09-20T09:10:42.602Z,6.17
2022-09-20T09:13:15.596Z,7.67
2022-09-20T09:15:44.549Z,7.90
2022-09-20T09:18:12.509Z,5.10
2022-09-20T09:20:42.247Z,8.27
2022-09-20T09:23:10.243Z,6.17
2022-09-20T09:25:38.295Z,10.17
2022-09-20T09:28:13.507Z,6.07
2022-09-20T09:30:41.693Z,7.90
2022-09-20T09:33:23.748Z,5.03
2022-09-20T09:35:54.796Z,16.70
2022-09-20T09:38:24.153Z,7.43
2022-09-20T09:40:52.623Z,6.00
2022-09-20T09:43:27.037Z,5.60
2022-09-20T09:45:55.298Z,2.27
2022-09-20T09:48:26.548Z,5.97
2022-09-20T09:51:10.900Z,5.37
2022-09-20T09:53:39.057Z,7.20
2022-09-20T09:56:14.509Z,6.13
2022-09-20T09:58:47.923Z,6.93
2022-09-20T10:01:28.000Z,10.30
2022-09-20T10:04:02.914Z,4.77
2022-09-20T10:06:33.861Z,3.40
2022-09-20T10:09:08.759Z,6.63
2022-09-20T10:11:41.074Z,6.93
2022-09-20T10:14:16.717Z,2.53
2022-09-20T10:16:51.316Z,14.87
2022-09-20T10:19:24.737Z,6.83
2022-09-20T10:21:56.175Z,5.10
2022-09-20T10:24:31.224Z,3.60
2022-09-20T10:27:14.719Z,3.63
2022-09-20T10:29:46.859Z,4.97
2022-09-20T10:32:22.437Z,6.10
2022-09-20T10:35:06.070Z,3.00
2022-09-20T10:37:38.127Z,3.03
2022-09-20T10:40:13.934Z,4.30
2022-09-20T10:43:02.940Z,6.37
2022-09-20T10:46:03.854Z,4.40
2022-09-20T10:48:25.974Z,5.03
2022-09-20T10:50:59.059Z,4.03
2022-09-20T10:53:35.338Z,9.83
2022-09-20T10:56:15.239Z,6.10
2022-09-20T10:58:59.685Z,3.73
2022-09-20T11:01:31.287Z,3.50
2022-09-20T11:04:11.878Z,2.20
2022-09-20T11:06:47.188Z,3.27
2022-09-20T11:09:17.116Z,5.20
2022-09-20T11:11:46.343Z,12.30
2022-09-20T11:14:15.906Z,8.27
2022-09-20T11:16:47.508Z,5.77
2022-09-20T11:19:19.663Z,4.47
2022-09-20T11:21:51.105Z,4.40
2022-09-20T11:24:23.250Z,5.87
2022-09-20T11:26:52.854Z,4.93
2022-09-20T11:29:23.507Z,6.03
2022-09-20T11:31:54.631Z,6.03
2022-09-20T11:34:25.627Z,3.87
2022-09-20T11:36:58.734Z,6.43
2022-09-20T11:39:29.811Z,3.50
2022-09-20T11:41:59.826Z,6.53
2022-09-20T11:44:27.287Z,8.27
2022-09-20T11:46:56.707Z,6.67
2022-09-20T11:49:27.707Z,6.57
2022-09-20T11:52:06.582Z,3.37
2022-09-20T11:54:49.631Z,8.60
2022-09-20T11:57:17.752Z,4.30
2022-09-20T11:59:51.165Z,4.27
2022-09-20T12:02:21.530Z,10.00
2022-09-20T12:04:53.148Z,4.10
2022-09-20T12:07:24.935Z,9.53
2022-09-20T12:09:54.807Z,3.53
2022-09-20T12:12:28.631Z,3.57
2022-09-20T12:14:56.848Z,7.83
2022-09-20T12:17:42.191Z,7.30
2022-09-20T12:20:24.488Z,4.77
2022-09-20T12:22:53.207Z,3.53
2022-09-20T12:25:37.161Z,4.37
2022-09-20T12:28:05.295Z,5.50
2022-09-20T12:30:33.867Z,12.47
2022-09-20T12:33:04.018Z,6.30
2022-09-20T12:36:00.944Z,2.63
2022-09-20T12:38:43.287Z,2.40
2022-09-20T12:41:14.075Z,7.00
2022-09-20T12:43:53.293Z,2.33
2022-09-20T12:46:22.934Z,3.47
2022-09-20T12:48:50.566Z,4.40
2022-09-20T12:51:37.910Z,1.93
2022-09-20T12:54:07.519Z,1.40
2022-09-20T12:56:38.751Z,1.17
2022-09-20T12:59:07.708Z,1.40
2022-09-20T13:01:38.036Z,1.40
2022-09-20T13:04:24.320Z,3.07
2022-09-20T13:07:11.704Z,2.43
2022-09-20T13:09:39.259Z,3.20
2022-09-20T13:12:10.492Z,6.13
2022-09-20T13:14:40.277Z,3.43
2022-09-20T13:17:09.715Z,1.10
2022-09-20T13:19:39.021Z,5.47
2022-09-20T13:22:08.254Z,3.47
2022-09-20T13:24:40.010Z,5.23
2022-09-20T13:27:09.802Z,1.20
2022-09-20T13:29:39.924Z,5.13
2022-09-20T13:32:17.735Z,3.30
2022-09-20T13:34:45.587Z,1.87
2022-09-20T13:37:23.386Z,1.63
2022-09-20T13:39:54.334Z,2.40
2022-09-20T13:42:23.242Z,1.27
2022-09-20T13:44:50.987Z,1.07
2022-09-20T13:47:25.839Z,1.47
2022-09-20T13:49:53.446Z,3.27
2022-09-20T13:52:25.051Z,3.80
2022-09-20T13:54:52.438Z,2.40
2022-09-20T13:57:22.224Z,2.80
2022-09-20T13:59:52.564Z,1.20
2022-09-20T14:02:23.019Z,0.90
2022-09-20T14:04:51.943Z,2.13
2022-09-20T14:07:19.386Z,3.17
2022-09-20T14:09:46.795Z,1.70
2022-09-20T14:12:14.798Z,2.73
2022-09-20T14:14:42.856Z,1.60
2022-09-20T14:17:14.913Z,1.40
2022-09-20T14:19:43.219Z,1.17
2022-09-20T14:22:16.699Z,2.67
2022-09-20T14:24:57.601Z,3.20
2022-09-20T14:27:25.014Z,1.53
2022-09-20T14:29:53.119Z,2.40
2022-09-20T14:32:38.659Z,2.20
2022-09-20T14:35:09.130Z,2.97
2022-09-20T14:37:41.925Z,1.67
2022-09-20T14:40:18.095Z,1.63
2022-09-20T14:42:46.596Z,1.73
2022-09-20T14:45:21.373Z,1.50
2022-09-20T14:47:54.256Z,2.50
2022-09-20T14:50:25.278Z,8.20
2022-09-20T14:53:16.899Z,4.37
2022-09-20T14:55:55.660Z,3.13
2022-09-20T14:58:24.730Z,2.33
2022-09-20T15:00:53.519Z,3.03
2022-09-20T15:03:25.686Z,6.23
2022-09-20T15:05:54.492Z,2.97
2022-09-20T15:08:21.853Z,1.60
2022-09-20T15:10:49.242Z,2.50
2022-09-20T15:13:16.933Z,3.37
2022-09-20T15:15:45.712Z,1.40
2022-09-20T15:18:19.434Z,1.83
2022-09-20T15:20:46.870Z,2.40
2022-09-20T15:23:15.662Z,2.20
2022-09-20T15:25:43.071Z,1.97
2022-09-20T15:28:14.759Z,5.00
2022-09-20T15:30:42.232Z,1.10
2022-09-20T15:33:11.446Z,3.93
2022-09-20T15:35:38.949Z,3.27
2022-09-20T15:38:08.815Z,3.97
2022-09-20T15:40:39.142Z,2.13
2022-09-20T15:43:07.290Z,1.53
2022-09-20T15:45:35.036Z,2.00
2022-09-20T15:48:02.993Z,4.10
2022-09-20T15:50:30.411Z,2.27
2022-09-20T15:52:59.954Z,1.10
2022-09-20T15:55:27.766Z,4.67
2022-09-20T15:57:56.500Z,1.33
2022-09-20T16:00:24.042Z,1.10
2022-09-20T16:02:51.775Z,4.00
2022-09-20T16:05:19.186Z,5.10
2022-09-20T16:07:47.122Z,1.70
2022-09-20T16:10:14.533Z,2.27
2022-09-20T16:12:42.010Z,3.03
2022-09-20T16:15:11.759Z,1.33
2022-09-20T16:17:56.568Z,2.17
2022-09-20T16:20:24.174Z,4.30
2022-09-20T16:22:51.674Z,3.77
2022-09-20T16:25:19.105Z,1.50
2022-09-20T16:27:46.544Z,3.90
2022-09-20T16:30:15.742Z,11.07
2022-09-20T16:32:43.272Z,1.70
2022-09-20T16:35:11.096Z,4.10
2022-09-20T16:37:39.336Z,3.40
2022-09-20T16:40:07.466Z,2.80
2022-09-20T16:42:34.950Z,1.53
2022-09-20T16:45:02.295Z,2.63
2022-09-20T16:47:31.377Z,2.33
2022-09-20T16:49:58.755Z,3.37
2022-09-20T16:52:26.456Z,2.13
2022-09-20T16:54:53.916Z,3.07
2022-09-20T16:57:22.416Z,4.60
2022-09-20T16:59:51.763Z,3.80
2022-09-20T17:02:19.491Z,3.50
2022-09-20T17:04:48.373Z,5.00
2022-09-20T17:07:15.760Z,3.03
2022-09-20T17:09:43.303Z,2.30
2022-09-20T17:12:10.700Z,6.20
2022-09-20T17:14:38.208Z,2.60
2022-09-20T17:17:06.364Z,4.17
2022-09-20T17:19:33.885Z,7.20
2022-09-20T17:22:02.715Z,1.70
2022-09-20T17:24:30.515Z,5.17
2022-09-20T17:26:59.102Z,4.20
2022-09-20T17:29:27.603Z,3.60
2022-09-20T17:31:59.413Z,7.40
2022-09-20T17:34:29.591Z,4.40
2022-09-20T17:36:56.971Z,2.70
2022-09-20T17:39:25.826Z,3.27
2022-09-20T17:41:53.244Z,5.23
2022-09-20T17:44:20.647Z,3.67
2022-09-20T17:46:49.579Z,2.97
2022-09-20T17:49:18.243Z,2.90
2022-09-20T17:51:46.809Z,3.70
2022-09-20T17:54:14.576Z,6.37
2022-09-20T17:56:43.857Z,3.77
2022-09-20T17:59:12.323Z,3.40
2022-09-20T18:01:40.297Z,2.07
2022-09-20T18:04:08.324Z,5.63
2022-09-20T18:06:36.603Z,2.93
2022-09-20T18:09:05.054Z,2.90
2022-09-20T18:11:33.602Z,13.23
2022-09-20T18:14:03.495Z,10.23
2022-09-20T18:16:31.601Z,16.40
2022-09-20T18:19:00.019Z,7.93
2022-09-20T18:21:28.330Z,6.23
2022-09-20T18:23:57.157Z,7.93
2022-09-20T18:26:25.886Z,4.33
2022-09-20T18:28:54.714Z,11.93
2022-09-20T18:31:23.938Z,12.40
2022-09-20T18:33:53.383Z,7.80
2022-09-20T18:36:20.797Z,11.17
2022-09-20T18:38:48.281Z,2.70
2022-09-20T18:41:15.669Z,2.70
2022-09-20T18:43:44.090Z,5.70
2022-09-20T18:46:11.937Z,6.80
2022-09-20T18:48:41.119Z,3.73
2022-09-20T18:51:09.413Z,4.00
2022-09-20T18:53:37.487Z,4.47
2022-09-20T18:56:08.802Z,3.93
2022-09-20T18:58:38.432Z,5.20
2022-09-20T19:01:12.891Z,6.83
2022-09-20T19:03:49.229Z,8.17
2022-09-20T19:06:19.131Z,9.00
2022-09-20T19:08:51.651Z,13.80
2022-09-20T19:11:26.952Z,10.93
2022-09-20T19:13:56.239Z,6.83
2022-09-20T19:16:24.789Z,7.10
2022-09-20T19:19:03.646Z,13.43
2022-09-20T19:21:35.748Z,6.20
2022-09-20T19:24:08.302Z,7.40
2022-09-20T19:26:38.234Z,4.20
2022-09-20T19:29:11.402Z,24.83
2022-09-20T19:31:39.028Z,33.20
2022-09-20T19:34:13.899Z,16.50
2022-09-20T19:36:49.072Z,6.83
2022-09-20T19:39:19.369Z,7.33
2022-09-20T19:41:50.052Z,6.40
2022-09-20T19:44:25.336Z,5.40
2022-09-20T19:47:02.298Z,6.03
2022-09-20T19:49:32.895Z,4.60
2022-09-20T19:52:01.122Z,5.00
2022-09-20T19:54:28.769Z,6.27
2022-09-20T19:56:57.655Z,5.13
2022-09-20T19:59:25.983Z,5.80
2022-09-20T20:01:53.788Z,4.73
2022-09-20T20:04:21.551Z,6.03
2022-09-20T20:06:54.535Z,4.83
2022-09-20T20:09:27.055Z,4.43
2022-09-20T20:12:00.106Z,5.03
2022-09-20T20:14:33.352Z,3.77
2022-09-20T20:17:04.006Z,5.13
2022-09-20T20:19:40.835Z,7.80
2022-09-20T20:22:16.378Z,5.00
2022-09-20T20:24:47.588Z,4.77
2022-09-20T20:27:15.035Z,6.67
2022-09-20T20:29:42.413Z,8.30
2022-09-20T20:32:09.803Z,4.33
2022-09-20T20:34:37.647Z,8.53
2022-09-20T20:37:05.125Z,7.40
2022-09-20T20:39:33.899Z,4.97
2022-09-20T20:42:02.741Z,4.50
2022-09-20T20:44:30.476Z,10.90
2022-09-20T20:46:57.990Z,6.13
2022-09-20T20:49:25.424Z,7.03
2022-09-20T20:51:52.892Z,14.23
2022-09-20T20:54:20.811Z,9.20
2022-09-20T20:56:49.558Z,4.43
2022-09-20T20:59:17.393Z,3.97
2022-09-20T21:01:45.853Z,4.77
2022-09-20T21:04:15.201Z,9.10
2022-09-20T21:06:42.638Z,8.50
2022-09-20T21:09:10.710Z,13.97
2022-09-20T21:11:39.376Z,22.50
2022-09-20T21:14:08.979Z,21.80
2022-09-20T21:16:37.242Z,20.20
2022-09-20T21:19:05.670Z,12.47
2022-09-20T21:21:34.794Z,12.07
2022-09-20T21:24:03.166Z,8.90
2022-09-20T21:26:32.815Z,9.90
2022-09-20T21:29:00.935Z,10.07
2022-09-20T21:31:30.173Z,9.83
2022-09-20T21:33:58.049Z,9.10
2022-09-20T21:36:26.544Z,13.70
2022-09-20T21:38:53.902Z,8.03
2022-09-20T21:41:22.680Z,5.60
2022-09-20T21:43:53.048Z,10.30
2022-09-20T21:46:21.495Z,7.43
2022-09-20T21:48:51.496Z,11.07
2022-09-20T21:51:20.384Z,6.13
2022-09-20T21:53:48.240Z,8.83
2022-09-20T21:56:17.410Z,10.40
2022-09-20T21:58:45.924Z,6.03
2022-09-20T22:01:14.756Z,5.83
2022-09-20T22:03:42.840Z,6.03
2022-09-20T22:06:13.409Z,8.87
2022-09-20T22:08:42.004Z,6.33
2022-09-20T22:11:14.958Z,4.67
2022-09-20T22:13:42.726Z,3.40
2022-09-20T22:16:11.029Z,5.50
2022-09-20T22:18:39.655Z,4.67
2022-09-20T22:21:08.481Z,8.93
2022-09-20T22:23:37.524Z,5.23
2022-09-20T22:26:06.443Z,7.30
2022-09-20T22:28:33.909Z,7.23
2022-09-20T22:31:08.619Z,6.70
2022-09-20T22:33:36.829Z,4.30
2022-09-20T22:36:07.495Z,7.00
2022-09-20T22:38:35.050Z,7.60
2022-09-20T22:41:03.798Z,5.73
2022-09-20T22:43:32.655Z,3.63
2022-09-20T22:46:02.810Z,4.70
2022-09-20T22:48:30.539Z,6.90
2022-09-20T22:50:59.505Z,5.03
2022-09-20T22:53:28.060Z,4.70
2022-09-20T22:55:55.507Z,4.33
2022-09-20T22:58:24.208Z,6.00
2022-09-20T23:00:51.724Z,3.30
2022-09-20T23:03:19.276Z,9.90
2022-09-20T23:05:46.672Z,6.70
2022-09-20T23:08:14.039Z,3.43
2022-09-20T23:10:41.486Z,4.40
2022-09-20T23:13:08.928Z,6.30
2022-09-20T23:15:37.716Z,8.03
2022-09-20T23:18:05.918Z,3.43
2022-09-20T23:20:33.500Z,5.10
2022-09-20T23:23:00.896Z,4.07
2022-09-20T23:25:28.302Z,6.17
2022-09-20T23:27:55.750Z,5.37
2022-09-20T23:30:23.240Z,9.30
2022-09-20T23:32:54.061Z,12.23
2022-09-20T23:35:21.455Z,4.30
2022-09-20T23:37:48.868Z,4.30
2022-09-20T23:40:16.341Z,5.80
2022-09-20T23:42:43.763Z,4.90
2022-09-20T23:45:12.219Z,10.30
2022-09-20T23:47:39.710Z,4.90
2022-09-20T23:50:08.860Z,9.60
2022-09-20T23:52:36.273Z,4.63
2022-09-20T23:55:03.711Z,7.90
2022-09-20T23:57:31.184Z,4.83
2022-09-20T23:59:59.242Z,3.57
